Time;durP1;ratioP1;P1;durP2;ratioP2;P2;SDS_P1;SDS_P2;PMS_P1;PMS_P2;Temp;Humidity;BMP_temperature;BMP_pressure;BME280_temperature;BME280_humidity;BME280_pressure;Samples;Min_cycle;Max_cycle;Signal;HPM_P1;HPM_P2
2023/07/30 00:00:41;;;;;;;22.95;10.95;;;15.50;99.90;;;;;;4955663;28;20035;-72
2023/07/30 00:03:07;;;;;;;25.92;11.00;;;15.50;99.90;;;;;;4955345;28;20221;-73
2023/07/30 00:05:32;;;;;;;23.55;11.68;;;15.50;99.90;;;;;;4954115;28;20150;-73
2023/07/30 00:07:58;;;;;;;20.40;10.93;;;15.50;99.90;;;;;;4953506;28;20420;-72
2023/07/30 00:10:23;;;;;;;18.58;11.38;;;15.50;99.90;;;;;;4947229;28;20193;-72
2023/07/30 00:12:49;;;;;;;21.60;11.65;;;15.50;99.90;;;;;;4950284;28;20059;-72
2023/07/30 00:15:14;;;;;;;23.15;12.85;;;15.50;99.90;;;;;;4952697;28;20447;-75
2023/07/30 00:17:40;;;;;;;22.13;12.40;;;15.50;99.90;;;;;;4952255;28;20035;-73
2023/07/30 00:20:07;;;;;;;19.15;12.68;;;15.50;99.90;;;;;;4952778;28;20174;-73
2023/07/30 00:22:33;;;;;;;25.40;12.45;;;15.50;99.90;;;;;;4944943;28;20028;-72
2023/07/30 00:24:59;;;;;;;23.13;12.70;;;15.50;99.90;;;;;;4952743;28;20094;-72
2023/07/30 00:27:24;;;;;;;30.42;13.38;;;15.50;99.90;;;;;;4952538;28;20105;-75
2023/07/30 00:29:50;;;;;;;24.63;13.05;;;15.40;99.90;;;;;;4953152;28;20503;-75
2023/07/30 00:32:16;;;;;;;25.63;12.70;;;15.40;99.90;;;;;;4952731;28;20049;-72
2023/07/30 00:34:42;;;;;;;25.05;13.23;;;15.40;99.90;;;;;;4958461;28;20035;-72
2023/07/30 00:37:09;;;;;;;27.73;13.55;;;15.30;99.90;;;;;;4953423;28;20031;-72
2023/07/30 00:39:34;;;;;;;21.88;12.25;;;15.30;99.90;;;;;;4950302;28;20047;-72
2023/07/30 00:42:00;;;;;;;22.60;11.38;;;15.40;99.90;;;;;;4992705;28;20093;-72
2023/07/30 00:44:25;;;;;;;25.52;12.35;;;15.30;99.90;;;;;;4956203;28;20045;-74
2023/07/30 00:46:51;;;;;;;22.80;11.68;;;15.20;99.90;;;;;;4952825;28;20050;-72
2023/07/30 00:49:16;;;;;;;21.90;12.13;;;15.10;99.90;;;;;;4958307;28;20371;-72
2023/07/30 00:51:43;;;;;;;21.95;11.63;;;15.00;99.90;;;;;;4953342;28;20031;-72
2023/07/30 00:54:09;;;;;;;24.27;12.40;;;15.00;99.90;;;;;;4982448;28;20039;-72
2023/07/30 00:56:35;;;;;;;28.02;11.88;;;14.90;99.90;;;;;;4947580;28;20035;-72
2023/07/30 00:59:01;;;;;;;21.48;11.85;;;14.80;99.90;;;;;;4955255;28;20396;-73
2023/07/30 01:01:26;;;;;;;21.13;12.68;;;14.80;99.90;;;;;;4947028;28;20050;-73
2023/07/30 01:03:52;;;;;;;23.38;12.70;;;14.80;99.90;;;;;;4952373;28;20079;-72
2023/07/30 01:06:19;;;;;;;24.20;12.52;;;14.80;99.90;;;;;;4958255;28;20035;-74
2023/07/30 01:08:45;;;;;;;26.02;12.90;;;14.70;99.90;;;;;;4949800;28;20044;-74
2023/07/30 01:11:11;;;;;;;27.90;14.00;;;14.80;99.90;;;;;;4947909;28;20054;-72
2023/07/30 01:13:38;;;;;;;25.13;13.80;;;14.70;99.90;;;;;;4951918;28;20034;-72
2023/07/30 01:16:04;;;;;;;27.17;14.77;;;14.80;99.90;;;;;;4951653;28;20106;-74
2023/07/30 01:18:29;;;;;;;25.02;14.20;;;14.90;99.90;;;;;;4952823;28;20463;-72
2023/07/30 01:20:59;;;;;;;30.73;14.95;;;14.90;99.90;;;;;;4979914;28;20034;-75
2023/07/30 01:23:25;;;;;;;31.70;15.00;;;14.90;99.90;;;;;;4947217;28;20401;-72
2023/07/30 01:26:02;;;;;;;28.02;15.25;;;14.90;99.90;;;;;;4947739;28;20050;-72
2023/07/30 01:28:32;;;;;;;27.98;14.57;;;15.00;99.90;;;;;;4948230;28;20458;-72
2023/07/30 01:31:01;;;;;;;31.90;16.52;;;15.00;99.90;;;;;;4947201;28;20098;-72
2023/07/30 01:33:28;;;;;;;30.30;15.35;;;15.00;99.90;;;;;;4949450;28;20039;-73
2023/07/30 01:35:56;;;;;;;37.17;17.15;;;15.00;99.90;;;;;;4960924;28;20042;-74
2023/07/30 01:38:22;;;;;;;36.80;15.85;;;15.00;99.90;;;;;;4944093;28;20037;-72
2023/07/30 01:40:47;;;;;;;29.20;15.68;;;15.00;99.90;;;;;;4948550;29;20043;-72
2023/07/30 01:43:13;;;;;;;34.45;16.45;;;15.00;99.90;;;;;;4944362;28;20042;-72
2023/07/30 01:45:40;;;;;;;33.75;16.27;;;15.00;99.90;;;;;;4944450;28;20371;-72
2023/07/30 01:48:06;;;;;;;33.72;16.77;;;15.00;99.90;;;;;;4951540;28;20058;-72
2023/07/30 01:50:31;;;;;;;36.25;17.38;;;15.00;99.90;;;;;;4951031;28;20039;-72
2023/07/30 01:52:57;;;;;;;34.47;17.13;;;15.10;99.90;;;;;;4946071;28;20036;-72
2023/07/30 01:55:22;;;;;;;33.22;17.35;;;15.10;99.90;;;;;;4946895;29;20126;-72
2023/07/30 01:57:48;;;;;;;35.05;16.30;;;15.00;99.90;;;;;;4949033;29;20035;-72
2023/07/30 02:00:13;;;;;;;35.65;18.05;;;15.10;99.90;;;;;;4950545;28;20479;-74
2023/07/30 02:02:39;;;;;;;33.25;17.38;;;15.10;99.90;;;;;;4949148;28;20137;-75
2023/07/30 02:05:04;;;;;;;40.00;17.83;;;15.00;99.90;;;;;;4947729;29;20542;-72
2023/07/30 02:07:30;;;;;;;35.97;17.00;;;15.00;99.90;;;;;;4974758;28;20138;-72
2023/07/30 02:09:56;;;;;;;33.88;16.60;;;15.00;99.90;;;;;;4944272;28;20055;-72
2023/07/30 02:12:21;;;;;;;31.73;16.30;;;15.00;99.90;;;;;;4946480;29;20102;-72
2023/07/30 02:14:47;;;;;;;37.70;18.15;;;15.00;99.90;;;;;;4945802;28;20062;-72
2023/07/30 02:17:12;;;;;;;32.58;16.33;;;15.00;99.90;;;;;;4941499;28;20433;-72
2023/07/30 02:19:38;;;;;;;34.78;17.88;;;15.00;99.90;;;;;;4955590;28;20106;-72
2023/07/30 02:22:03;;;;;;;34.38;18.00;;;15.00;99.90;;;;;;4951282;28;20053;-73
2023/07/30 02:24:29;;;;;;;30.48;16.92;;;15.00;99.90;;;;;;4978379;28;20467;-72
2023/07/30 02:26:54;;;;;;;36.13;17.67;;;14.90;99.90;;;;;;4945199;28;20114;-71
2023/07/30 02:29:20;;;;;;;35.75;17.80;;;14.90;99.90;;;;;;4949610;29;20159;-72
2023/07/30 02:31:45;;;;;;;38.13;18.05;;;14.90;99.90;;;;;;4949335;28;20053;-72
2023/07/30 02:34:11;;;;;;;34.75;18.15;;;14.90;99.90;;;;;;4951008;28;20046;-72
2023/07/30 02:36:36;;;;;;;40.40;18.45;;;14.90;99.90;;;;;;4948784;28;20035;-72
2023/07/30 02:39:02;;;;;;;42.78;18.35;;;14.90;99.90;;;;;;4945068;28;20042;-72
2023/07/30 02:41:28;;;;;;;37.80;19.38;;;14.80;99.90;;;;;;4943033;28;20041;-76
2023/07/30 02:43:53;;;;;;;38.53;18.10;;;14.80;99.90;;;;;;4980690;28;20117;-72
2023/07/30 02:46:18;;;;;;;44.10;19.50;;;14.80;99.90;;;;;;4973929;28;20027;-72
2023/07/30 02:48:44;;;;;;;43.50;19.35;;;14.80;99.90;;;;;;4949373;28;20121;-72
2023/07/30 02:51:09;;;;;;;38.10;18.58;;;14.80;99.90;;;;;;4948262;29;20035;-72
2023/07/30 02:53:35;;;;;;;37.40;19.17;;;14.80;99.90;;;;;;4976602;28;20044;-71
2023/07/30 02:56:00;;;;;;;44.20;19.17;;;14.70;99.90;;;;;;4944652;28;20122;-72
2023/07/30 02:58:26;;;;;;;40.53;19.05;;;14.60;99.90;;;;;;4950988;28;20050;-72
2023/07/30 03:00:51;;;;;;;38.55;18.48;;;14.60;99.90;;;;;;4948683;28;20109;-72
2023/07/30 03:03:17;;;;;;;43.28;19.15;;;14.60;99.90;;;;;;4949561;28;20106;-72
2023/07/30 03:05:43;;;;;;;42.50;19.70;;;14.60;99.90;;;;;;4950322;28;20078;-72
2023/07/30 03:08:08;;;;;;;45.05;19.42;;;14.60;99.90;;;;;;4943969;28;20470;-72
2023/07/30 03:10:36;;;;;;;45.95;20.13;;;14.50;99.90;;;;;;4950522;28;20391;-72
2023/07/30 03:13:01;;;;;;;46.55;19.33;;;14.50;99.90;;;;;;4943439;28;20023;-72
2023/07/30 03:15:27;;;;;;;44.33;19.67;;;14.50;99.90;;;;;;4952395;28;20042;-72
2023/07/30 03:17:53;;;;;;;48.00;19.85;;;14.50;99.90;;;;;;4948866;28;20547;-72
2023/07/30 03:20:18;;;;;;;43.10;19.90;;;14.40;99.90;;;;;;4979986;28;20034;-72
2023/07/30 03:22:43;;;;;;;42.95;19.17;;;14.40;99.90;;;;;;4949529;28;20102;-74
2023/07/30 03:25:09;;;;;;;45.75;20.40;;;14.40;99.90;;;;;;4945503;28;20043;-72
2023/07/30 03:27:34;;;;;;;47.53;20.10;;;14.40;99.90;;;;;;4951934;28;20035;-72
2023/07/30 03:30:00;;;;;;;50.67;20.48;;;14.40;99.90;;;;;;4950497;28;20043;-72
2023/07/30 03:32:25;;;;;;;43.17;18.88;;;14.40;99.90;;;;;;4954760;28;20126;-72
2023/07/30 03:34:51;;;;;;;46.60;20.92;;;14.30;99.90;;;;;;4953655;28;20031;-72
2023/07/30 03:37:16;;;;;;;46.05;20.00;;;14.40;99.90;;;;;;4950799;28;20051;-76
2023/07/30 03:39:42;;;;;;;51.03;21.27;;;14.20;99.90;;;;;;4943584;28;20118;-73
2023/07/30 03:42:07;;;;;;;51.80;21.05;;;14.20;99.90;;;;;;4948798;29;20035;-74
2023/07/30 03:44:33;;;;;;;58.25;20.92;;;14.20;99.90;;;;;;4944332;28;20042;-72
2023/07/30 03:46:58;;;;;;;53.20;20.95;;;14.10;99.90;;;;;;4940445;29;20464;-72
2023/07/30 03:49:24;;;;;;;51.70;20.55;;;14.10;99.90;;;;;;4973413;28;20187;-74
2023/07/30 03:51:49;;;;;;;58.30;21.55;;;14.10;99.90;;;;;;4948118;28;20062;-72
2023/07/30 03:54:14;;;;;;;52.60;19.60;;;14.10;99.90;;;;;;4949477;28;20383;-73
2023/07/30 03:56:40;;;;;;;57.58;21.02;;;14.10;99.90;;;;;;4943884;28;20039;-72
2023/07/30 03:59:05;;;;;;;47.85;19.85;;;14.10;99.90;;;;;;4949390;29;20035;-72
2023/07/30 04:01:31;;;;;;;52.05;20.88;;;14.20;99.90;;;;;;4944353;28;20034;-73
2023/07/30 04:03:57;;;;;;;48.63;18.98;;;14.20;99.90;;;;;;4950411;28;20059;-72
2023/07/30 04:06:22;;;;;;;48.53;20.30;;;14.20;99.90;;;;;;4948279;28;20471;-72
2023/07/30 04:08:48;;;;;;;50.65;20.20;;;14.20;99.90;;;;;;4945880;29;20051;-73
2023/07/30 04:11:13;;;;;;;51.67;19.60;;;14.20;99.90;;;;;;4947072;28;20133;-74
2023/07/30 04:13:40;;;;;;;54.67;20.75;;;14.20;99.90;;;;;;4936749;28;20123;-72
2023/07/30 04:16:06;;;;;;;49.17;20.08;;;14.20;99.90;;;;;;4947829;28;20042;-73
2023/07/30 04:18:31;;;;;;;38.92;19.35;;;14.20;99.90;;;;;;4948296;28;20062;-72
2023/07/30 04:20:57;;;;;;;51.20;20.50;;;14.20;99.90;;;;;;4946724;28;20127;-72
2023/07/30 04:23:22;;;;;;;49.55;20.00;;;14.20;99.90;;;;;;4945225;28;20049;-72
2023/07/30 04:25:51;;;;;;;42.60;19.45;;;14.20;99.90;;;;;;4948156;28;20035;-72
2023/07/30 04:28:17;;;;;;;50.22;18.45;;;14.30;99.90;;;;;;4942117;29;20501;-71
2023/07/30 04:30:42;;;;;;;48.78;19.98;;;14.30;99.90;;;;;;4948025;28;20134;-70
2023/07/30 04:33:08;;;;;;;49.25;21.08;;;14.40;99.90;;;;;;4948087;28;20047;-71
2023/07/30 04:35:33;;;;;;;47.50;20.75;;;14.40;99.90;;;;;;4947600;28;20339;-71
2023/07/30 04:37:59;;;;;;;52.33;21.08;;;14.50;99.90;;;;;;4943244;28;20410;-71
2023/07/30 04:40:24;;;;;;;52.67;20.85;;;14.50;99.90;;;;;;4950939;28;20047;-71
2023/07/30 04:42:50;;;;;;;56.22;22.20;;;14.50;99.90;;;;;;4948856;28;20677;-71
2023/07/30 04:45:15;;;;;;;57.10;21.50;;;14.50;99.90;;;;;;4951447;28;20072;-71
2023/07/30 04:47:41;;;;;;;53.78;21.70;;;14.60;99.90;;;;;;4959577;28;20486;-71
2023/07/30 04:50:07;;;;;;;53.58;22.67;;;14.60;99.90;;;;;;4947483;28;20413;-72
2023/07/30 04:52:32;;;;;;;47.40;20.77;;;14.60;99.90;;;;;;4948314;28;20470;-71
2023/07/30 04:54:57;;;;;;;46.53;21.25;;;14.60;99.90;;;;;;4951923;28;20035;-71
2023/07/30 04:57:23;;;;;;;49.03;20.85;;;14.70;99.90;;;;;;4953986;28;20110;-70
2023/07/30 04:59:48;;;;;;;55.25;21.70;;;14.70;99.90;;;;;;4953816;28;20038;-70
2023/07/30 05:02:14;;;;;;;45.00;20.25;;;14.70;99.90;;;;;;4949336;28;20031;-70
2023/07/30 05:04:39;;;;;;;53.83;21.05;;;14.70;99.90;;;;;;4952135;28;20424;-72
2023/07/30 05:07:05;;;;;;;53.95;22.33;;;14.70;99.90;;;;;;4951260;28;20074;-71
2023/07/30 05:09:31;;;;;;;61.08;22.42;;;14.80;99.90;;;;;;4952113;28;20512;-70
2023/07/30 05:11:56;;;;;;;54.33;20.92;;;14.80;99.90;;;;;;4948893;28;20119;-71
2023/07/30 05:14:21;;;;;;;49.10;20.67;;;14.80;99.90;;;;;;4947630;28;20471;-70
2023/07/30 05:16:47;;;;;;;56.45;21.13;;;14.80;99.90;;;;;;4948238;28;20035;-71
2023/07/30 05:19:12;;;;;;;48.85;20.45;;;14.80;99.90;;;;;;4950627;28;20401;-70
2023/07/30 05:21:38;;;;;;;53.90;21.67;;;14.90;99.90;;;;;;4946503;28;20042;-73
2023/07/30 05:24:04;;;;;;;47.85;20.52;;;14.80;99.90;;;;;;4949295;28;20121;-71
2023/07/30 05:26:29;;;;;;;47.58;20.45;;;14.80;99.90;;;;;;4949781;28;20039;-72
2023/07/30 05:28:55;;;;;;;49.67;20.45;;;14.90;99.90;;;;;;4948678;28;20039;-70
2023/07/30 05:31:20;;;;;;;49.78;19.27;;;15.00;99.90;;;;;;4949235;28;20059;-70
2023/07/30 05:33:45;;;;;;;48.70;20.23;;;15.00;99.90;;;;;;4948011;28;20440;-73
2023/07/30 05:36:11;;;;;;;48.33;18.80;;;14.90;99.90;;;;;;4951120;28;20162;-71
2023/07/30 05:38:36;;;;;;;48.28;18.77;;;15.00;99.90;;;;;;4945182;28;20059;-70
2023/07/30 05:41:02;;;;;;;47.28;17.75;;;15.00;99.90;;;;;;4949676;28;20086;-70
2023/07/30 05:43:27;;;;;;;48.05;18.95;;;15.00;99.90;;;;;;4950144;28;20042;-70
2023/07/30 05:45:53;;;;;;;51.63;19.50;;;15.00;99.90;;;;;;4949780;28;20085;-70
2023/07/30 05:48:18;;;;;;;50.03;17.25;;;15.10;99.90;;;;;;4984187;28;20412;-71
2023/07/30 05:50:44;;;;;;;47.83;18.13;;;15.10;99.90;;;;;;4941322;28;20149;-71
2023/07/30 05:53:09;;;;;;;45.35;16.83;;;15.10;99.90;;;;;;4947615;28;20031;-71
2023/07/30 05:55:35;;;;;;;41.05;17.30;;;15.10;99.90;;;;;;4940292;28;20031;-71
2023/07/30 05:58:00;;;;;;;43.10;16.63;;;15.30;99.90;;;;;;4948386;28;20031;-71
2023/07/30 06:00:26;;;;;;;41.33;16.40;;;15.20;99.90;;;;;;4949163;28;20131;-71
2023/07/30 06:02:51;;;;;;;44.70;15.90;;;15.30;99.90;;;;;;4942951;28;20113;-71
2023/07/30 06:05:17;;;;;;;42.28;15.98;;;15.30;99.90;;;;;;4950498;28;20065;-71
2023/07/30 06:07:42;;;;;;;41.72;16.30;;;15.40;99.90;;;;;;4950810;28;20525;-72
2023/07/30 06:10:08;;;;;;;39.88;14.15;;;15.50;99.90;;;;;;4946365;28;20596;-71
2023/07/30 06:12:34;;;;;;;38.17;14.45;;;15.50;99.90;;;;;;4950252;28;20034;-72
2023/07/30 06:14:59;;;;;;;41.83;14.10;;;15.60;99.90;;;;;;4947691;28;20036;-71
2023/07/30 06:17:25;;;;;;;40.92;13.48;;;15.60;99.90;;;;;;4943209;28;20035;-71
2023/07/30 06:19:50;;;;;;;43.03;13.68;;;15.70;99.90;;;;;;4947813;28;20039;-68
2023/07/30 06:22:15;;;;;;;37.55;12.43;;;15.80;99.80;;;;;;4956455;28;20031;-67
2023/07/30 06:24:41;;;;;;;31.45;12.85;;;15.70;99.40;;;;;;4946113;28;20046;-70
2023/07/30 06:27:09;;;;;;;29.05;12.32;;;15.90;99.60;;;;;;4946793;29;20450;-69
2023/07/30 06:29:35;;;;;;;27.13;12.00;;;16.00;99.60;;;;;;4948552;28;20035;-68
2023/07/30 06:32:00;;;;;;;36.38;12.10;;;16.10;99.40;;;;;;4948705;28;20085;-67
2023/07/30 06:34:25;;;;;;;33.88;11.75;;;16.10;99.10;;;;;;4944174;28;20050;-68
2023/07/30 06:36:51;;;;;;;25.92;10.43;;;16.10;98.60;;;;;;4950245;28;20042;-67
2023/07/30 06:39:16;;;;;;;25.33;9.88;;;16.00;98.00;;;;;;4945468;28;20173;-67
2023/07/30 06:41:42;;;;;;;24.67;8.95;;;16.00;97.70;;;;;;4951854;28;20189;-67
2023/07/30 06:44:08;;;;;;;23.40;8.90;;;16.10;97.70;;;;;;4946768;29;20630;-67
2023/07/30 06:46:33;;;;;;;24.20;8.55;;;16.10;97.10;;;;;;4947359;28;20039;-69
2023/07/30 06:48:59;;;;;;;25.77;8.05;;;16.20;97.40;;;;;;4950190;28;20042;-66
2023/07/30 06:51:25;;;;;;;21.13;7.10;;;16.40;97.40;;;;;;4945463;28;20085;-66
2023/07/30 06:53:50;;;;;;;26.10;7.53;;;16.30;96.90;;;;;;4943826;28;20068;-69
2023/07/30 06:56:16;;;;;;;24.13;6.97;;;16.50;97.00;;;;;;4960304;28;20117;-67
2023/07/30 06:58:41;;;;;;;26.70;7.47;;;16.40;96.20;;;;;;4948696;28;20536;-67
2023/07/30 07:01:07;;;;;;;19.80;6.72;;;16.50;96.30;;;;;;4945438;28;20035;-68
2023/07/30 07:03:32;;;;;;;18.40;6.50;;;16.70;96.90;;;;;;4944207;28;20043;-67
2023/07/30 07:05:58;;;;;;;18.52;6.32;;;16.90;96.80;;;;;;4945267;28;20428;-67
2023/07/30 07:08:23;;;;;;;26.00;6.65;;;16.90;96.00;;;;;;4945206;28;20362;-67
2023/07/30 07:10:50;;;;;;;25.20;5.90;;;17.10;96.50;;;;;;4949220;28;20144;-67
2023/07/30 07:13:15;;;;;;;16.90;5.15;;;17.00;95.70;;;;;;4940890;28;20389;-70
2023/07/30 07:15:42;;;;;;;15.60;5.20;;;17.10;95.90;;;;;;4943816;28;20030;-68
2023/07/30 07:18:08;;;;;;;19.55;5.10;;;17.20;95.40;;;;;;4944002;28;20038;-69
2023/07/30 07:20:33;;;;;;;17.27;4.80;;;17.30;95.00;;;;;;4950290;28;20039;-69
2023/07/30 07:22:59;;;;;;;13.07;4.45;;;17.30;95.30;;;;;;4940950;28;20097;-73
2023/07/30 07:25:24;;;;;;;14.25;4.47;;;17.30;94.30;;;;;;4944516;28;20042;-71
2023/07/30 07:27:50;;;;;;;15.07;4.43;;;17.50;94.60;;;;;;4953447;28;20042;-67
2023/07/30 07:30:15;;;;;;;11.10;3.83;;;17.60;94.70;;;;;;4952691;28;20035;-67
2023/07/30 07:32:41;;;;;;;12.07;4.50;;;17.60;94.30;;;;;;4945048;28;20444;-69
2023/07/30 07:35:07;;;;;;;16.30;4.43;;;17.70;94.00;;;;;;4949331;28;20062;-71
2023/07/30 07:37:33;;;;;;;13.75;4.10;;;17.70;93.10;;;;;;4946564;28;20055;-68
2023/07/30 07:39:58;;;;;;;14.10;4.38;;;17.60;93.40;;;;;;4942319;28;20043;-68
2023/07/30 07:42:24;;;;;;;10.82;4.32;;;17.70;93.10;;;;;;4947044;28;20035;-69
2023/07/30 07:44:50;;;;;;;12.43;4.50;;;18.00;93.60;;;;;;4951420;28;20071;-69
2023/07/30 07:47:15;;;;;;;13.90;3.47;;;18.10;93.90;;;;;;4947793;28;20480;-69
2023/07/30 07:49:41;;;;;;;14.68;4.45;;;18.30;93.90;;;;;;4946436;29;20459;-68
2023/07/30 07:52:07;;;;;;;13.15;4.40;;;18.50;93.40;;;;;;4942764;28;20401;-70
2023/07/30 07:54:32;;;;;;;11.32;3.72;;;18.50;91.30;;;;;;4944937;28;20038;-68
2023/07/30 07:56:58;;;;;;;17.33;4.43;;;18.70;92.60;;;;;;4954786;28;20097;-68
2023/07/30 07:59:24;;;;;;;18.88;4.07;;;18.90;91.80;;;;;;4950442;28;20070;-67
2023/07/30 08:01:49;;;;;;;13.35;3.90;;;18.60;90.30;;;;;;4948190;28;20031;-67
2023/07/30 08:04:15;;;;;;;16.33;3.83;;;18.70;91.10;;;;;;4948461;28;20050;-68
2023/07/30 08:06:40;;;;;;;14.23;3.65;;;18.70;90.50;;;;;;4947181;28;20036;-68
2023/07/30 08:09:06;;;;;;;17.70;4.20;;;18.70;90.40;;;;;;4944787;28;20523;-69
2023/07/30 08:11:31;;;;;;;16.33;4.18;;;18.50;91.10;;;;;;4945742;28;20054;-70
2023/07/30 08:13:57;;;;;;;10.98;3.28;;;18.70;90.80;;;;;;4946801;28;20039;-70
2023/07/30 08:16:23;;;;;;;12.38;3.72;;;18.60;89.90;;;;;;4980425;28;20031;-67
2023/07/30 08:18:48;;;;;;;18.98;4.07;;;19.00;91.70;;;;;;4951398;28;20039;-68
2023/07/30 08:21:17;;;;;;;15.20;3.88;;;19.40;91.30;;;;;;4949604;28;20035;-69
2023/07/30 08:23:42;;;;;;;13.75;4.20;;;19.10;89.10;;;;;;4951196;28;20146;-67
2023/07/30 08:26:08;;;;;;;13.65;3.67;;;19.00;89.00;;;;;;4948318;28;20122;-71
2023/07/30 08:28:33;;;;;;;14.43;4.03;;;19.00;88.50;;;;;;4947004;28;20046;-68
2023/07/30 08:31:02;;;;;;;10.80;3.75;;;19.00;89.50;;;;;;4956909;28;20109;-67
2023/07/30 08:33:29;;;;;;;11.80;2.97;;;19.00;89.80;;;;;;4950934;28;20039;-66
2023/07/30 08:35:58;;;;;;;14.30;3.78;;;19.00;89.80;;;;;;4948307;28;20440;-68
2023/07/30 08:38:24;;;;;;;11.77;3.72;;;19.00;89.10;;;;;;4944189;28;20054;-68
2023/07/30 08:40:50;;;;;;;13.68;4.47;;;19.10;89.30;;;;;;4953632;28;20035;-67
2023/07/30 08:43:15;;;;;;;18.90;4.00;;;19.30;88.80;;;;;;4949811;28;20030;-67
2023/07/30 08:45:41;;;;;;;14.43;3.17;;;19.50;88.90;;;;;;4949627;28;20387;-67
2023/07/30 08:48:07;;;;;;;13.38;3.67;;;19.50;87.30;;;;;;4948018;28;20031;-69
2023/07/30 08:50:33;;;;;;;14.07;3.60;;;19.70;87.90;;;;;;4948503;28;20505;-68
2023/07/30 08:53:00;;;;;;;12.65;3.60;;;19.70;86.90;;;;;;4947600;28;20035;-67
2023/07/30 08:55:28;;;;;;;11.05;3.33;;;19.50;86.90;;;;;;4948770;28;20578;-67
2023/07/30 08:57:54;;;;;;;11.60;3.33;;;19.40;86.80;;;;;;4958041;28;20031;-70
2023/07/30 09:00:24;;;;;;;18.35;3.78;;;19.50;86.00;;;;;;4949133;28;20165;-67
2023/07/30 09:02:58;;;;;;;14.27;3.38;;;19.60;86.40;;;;;;4950137;28;20045;-70
2023/07/30 09:05:25;;;;;;;13.10;3.55;;;19.90;88.50;;;;;;4952818;28;20028;-67
2023/07/30 09:07:50;;;;;;;13.32;3.55;;;19.70;86.20;;;;;;4945123;28;20103;-67
2023/07/30 09:10:16;;;;;;;13.30;3.53;;;19.50;87.20;;;;;;4946987;28;20082;-66
2023/07/30 09:12:41;;;;;;;14.13;4.10;;;19.40;86.50;;;;;;4949697;28;20024;-67
2023/07/30 09:15:07;;;;;;;15.68;3.40;;;19.50;85.20;;;;;;4950423;28;20071;-70
2023/07/30 09:17:36;;;;;;;10.85;3.25;;;19.60;86.10;;;;;;4950639;29;20543;-67
2023/07/30 09:20:03;;;;;;;16.45;3.22;;;19.70;85.80;;;;;;4950380;28;20035;-69
2023/07/30 09:22:33;;;;;;;12.55;3.58;;;19.70;84.30;;;;;;4943452;28;20122;-67
2023/07/30 09:25:02;;;;;;;13.25;3.38;;;19.80;84.20;;;;;;4948755;28;20073;-66
2023/07/30 09:27:27;;;;;;;13.38;3.20;;;20.00;84.80;;;;;;4945801;28;20229;-71
2023/07/30 09:29:56;;;;;;;10.18;3.15;;;20.00;83.40;;;;;;4947087;28;20051;-68
2023/07/30 09:32:34;;;;;;;13.38;3.05;;;20.00;84.00;;;;;;4975712;28;20034;-68
2023/07/30 09:35:08;;;;;;;12.95;3.60;;;19.80;83.50;;;;;;4954170;28;20509;-67
2023/07/30 09:37:37;;;;;;;17.10;3.22;;;19.60;83.50;;;;;;4948425;28;20155;-67
2023/07/30 09:40:05;;;;;;;13.90;3.53;;;19.50;83.90;;;;;;4950920;28;20142;-67
2023/07/30 09:42:33;;;;;;;11.77;3.15;;;19.60;84.90;;;;;;4945147;28;20043;-67
2023/07/30 09:45:00;;;;;;;15.32;3.47;;;19.70;84.60;;;;;;4953705;28;20158;-67
2023/07/30 09:47:26;;;;;;;13.48;3.10;;;19.80;83.40;;;;;;4949800;28;20160;-68
2023/07/30 09:49:53;;;;;;;10.55;3.30;;;20.00;84.80;;;;;;4940526;28;20051;-68
2023/07/30 09:52:20;;;;;;;14.70;3.47;;;20.20;83.30;;;;;;4948163;28;20095;-67
2023/07/30 09:54:46;;;;;;;11.73;3.00;;;20.40;83.70;;;;;;4940150;28;20104;-66
2023/07/30 09:57:12;;;;;;;13.70;3.05;;;20.40;83.40;;;;;;4940598;28;20132;-70
2023/07/30 09:59:38;;;;;;;11.23;2.88;;;20.20;84.30;;;;;;4946200;28;20039;-66
2023/07/30 10:02:05;;;;;;;14.38;3.00;;;20.00;83.00;;;;;;4943633;28;20400;-69
2023/07/30 10:04:31;;;;;;;12.77;2.97;;;19.90;84.30;;;;;;4949365;28;20035;-67
2023/07/30 10:07:02;;;;;;;11.55;2.53;;;19.70;83.10;;;;;;4950658;28;20094;-67
2023/07/30 10:09:30;;;;;;;;;;;19.70;83.50;;;;;;4943529;28;20039;-67
2023/07/30 10:11:55;;;;;;;12.63;2.80;;;19.70;83.30;;;;;;4946343;28;19918;-65
2023/07/30 10:14:25;;;;;;;10.25;2.70;;;19.90;82.90;;;;;;4944702;28;20402;-67
2023/07/30 10:16:53;;;;;;;13.88;3.10;;;20.00;82.30;;;;;;4950106;28;20046;-67
2023/07/30 10:19:22;;;;;;;10.77;2.63;;;20.10;83.00;;;;;;4953386;28;20459;-66
2023/07/30 10:21:48;;;;;;;13.48;3.13;;;20.00;81.70;;;;;;4948212;29;20030;-68
2023/07/30 10:24:13;;;;;;;9.95;2.25;;;19.90;81.10;;;;;;4940748;28;20031;-67
2023/07/30 10:26:39;;;;;;;13.40;2.53;;;19.80;80.20;;;;;;4945239;28;20523;-69
2023/07/30 10:29:19;;;;;;;9.45;2.80;;;19.90;79.70;;;;;;4931881;28;20047;-66
2023/07/30 10:31:55;;;;;;;13.55;2.13;;;20.00;78.90;;;;;;4949750;28;20464;-67
2023/07/30 10:34:22;;;;;;;6.43;2.13;;;20.00;78.00;;;;;;4978858;28;20510;-67
2023/07/30 10:36:49;;;;;;;8.25;2.70;;;20.30;79.50;;;;;;4953627;28;20125;-66
2023/07/30 10:39:20;;;;;;;10.15;2.33;;;20.30;77.00;;;;;;4945455;28;20483;-66
2023/07/30 10:41:50;;;;;;;8.80;2.22;;;20.60;76.30;;;;;;4941985;28;20171;-67
2023/07/30 10:44:25;;;;;;;6.23;2.20;;;20.60;74.40;;;;;;4942696;28;20127;-71
2023/07/30 10:46:52;;;;;;;9.05;2.20;;;20.70;74.90;;;;;;4954084;28;20357;-66
2023/07/30 10:49:18;;;;;;;8.13;1.92;;;20.60;75.20;;;;;;4950017;28;20042;-66
2023/07/30 10:51:43;;;;;;;11.48;2.17;;;20.50;75.70;;;;;;4950016;28;20409;-67
2023/07/30 10:54:09;;;;;;;8.45;2.33;;;20.20;76.70;;;;;;4945818;28;20055;-66
2023/07/30 10:56:40;;;;;;;7.93;2.10;;;20.10;76.00;;;;;;4947881;28;20062;-66
2023/07/30 10:59:07;;;;;;;8.13;2.10;;;20.10;75.70;;;;;;4947871;28;20062;-66
2023/07/30 11:01:39;;;;;;;10.75;2.22;;;20.10;76.90;;;;;;4949296;28;20325;-66
2023/07/30 11:04:18;;;;;;;9.40;2.22;;;20.00;76.90;;;;;;4950002;28;20085;-66
2023/07/30 11:06:49;;;;;;;12.80;2.45;;;20.00;76.70;;;;;;4956110;28;20031;-67
2023/07/30 11:09:19;;;;;;;;;;;20.00;76.90;;;;;;4943812;28;20050;-71
2023/07/30 11:11:44;;;;;;;10.07;2.03;;;19.90;77.60;;;;;;4972339;28;20000;-67
2023/07/30 11:14:19;;;;;;;9.38;3.13;;;20.10;77.80;;;;;;4944776;28;20134;-70
2023/07/30 11:17:03;;;;;;;7.82;2.00;;;20.30;77.10;;;;;;4938379;28;20039;-67
2023/07/30 11:19:30;;;;;;;10.32;2.65;;;21.00;77.40;;;;;;4944467;29;20043;-68
2023/07/30 11:21:57;;;;;;;9.75;2.70;;;22.00;77.50;;;;;;4949006;28;20023;-67
2023/07/30 11:24:33;;;;;;;10.35;2.63;;;22.40;69.90;;;;;;4948498;28;20220;-66
2023/07/30 11:27:00;;;;;;;8.63;2.30;;;22.60;72.30;;;;;;4947236;28;20101;-68
2023/07/30 11:29:26;;;;;;;8.05;2.70;;;22.50;69.90;;;;;;4949016;28;20341;-66
2023/07/30 11:31:55;;;;;;;8.68;2.38;;;22.30;70.10;;;;;;4943531;28;20043;-66
2023/07/30 11:34:20;;;;;;;8.43;2.40;;;21.80;72.10;;;;;;4941273;28;20354;-66
2023/07/30 11:36:46;;;;;;;9.10;2.03;;;22.20;72.40;;;;;;4948495;28;20046;-66
2023/07/30 11:39:12;;;;;;;10.45;2.33;;;22.30;71.20;;;;;;4943278;28;20172;-66
2023/07/30 11:41:38;;;;;;;11.52;2.55;;;22.30;69.90;;;;;;4947059;28;20332;-66
2023/07/30 11:44:04;;;;;;;9.57;2.38;;;21.70;71.10;;;;;;4945188;28;20117;-72
2023/07/30 11:46:32;;;;;;;12.57;2.17;;;21.90;71.00;;;;;;4947120;28;20419;-68
2023/07/30 11:49:12;;;;;;;9.50;2.75;;;22.00;70.30;;;;;;4938692;28;20126;-66
2023/07/30 11:51:38;;;;;;;10.60;2.25;;;22.70;69.50;;;;;;4968203;23;20053;-87
2023/07/30 11:54:03;;;;;;;9.00;2.13;;;23.20;66.70;;;;;;4964836;28;20034;-90
2023/07/30 11:56:31;;;;;;;6.00;2.38;;;22.70;65.10;;;;;;4967626;28;20463;-88
2023/07/30 11:59:02;;;;;;;9.27;2.35;;;22.10;67.40;;;;;;4982832;28;20027;-88
2023/07/30 12:01:30;;;;;;;9.10;2.30;;;23.00;67.40;;;;;;4969465;28;20110;-89
2023/07/30 12:03:57;;;;;;;7.45;1.92;;;23.30;63.80;;;;;;4966563;28;20019;-88
2023/07/30 12:06:23;;;;;;;6.40;2.38;;;23.40;66.60;;;;;;4968190;28;20115;-87
2023/07/30 12:08:49;;;;;;;8.15;2.50;;;23.30;67.00;;;;;;4969248;28;20077;-88
2023/07/30 12:11:17;;;;;;;10.35;2.88;;;23.10;65.30;;;;;;4970557;28;20034;-85
2023/07/30 12:13:45;;;;;;;10.32;2.30;;;23.00;67.50;;;;;;4970405;28;20027;-86
2023/07/30 12:16:11;;;;;;;11.25;2.25;;;23.40;65.30;;;;;;4974664;28;20029;-86
2023/07/30 12:18:37;;;;;;;8.63;2.28;;;23.60;64.20;;;;;;5140781;23;20512;-86
2023/07/30 12:21:06;;;;;;;6.78;2.30;;;23.50;62.00;;;;;;4988554;28;20113;-88
2023/07/30 12:23:32;;;;;;;16.05;2.60;;;23.70;60.30;;;;;;5002776;28;20162;-86
2023/07/30 12:25:57;;;;;;;7.53;2.45;;;23.90;59.70;;;;;;4988186;28;20113;-86
2023/07/30 12:28:23;;;;;;;9.85;2.35;;;23.70;60.60;;;;;;4984415;28;20034;-85